DW8209 Gubbio IT current weather conditions

sailwx.info

Last reported at 2015-Mar-05 07:37 UTC.
Time now 2015-Mar-05 08:11 UTC

Location: N 43°19' E 012°34'.
View on Google Maps.

See reports from other nearby stations

  
Tides and Currents Weather Stations Pressure Air Temp Water Temp Dewpoint Dewpoint Depression Visibility Wind Speed Wind Dir Waves Ship Positions
date/time (UTC)wind fromknots sea level pressurealtimeterstation pressurevisibilityair tempwater tempwave heightnotes
2015-Mar-05 07:37
2015-Mar-05 07:22
2015-Mar-05 07:07
2015-Mar-05 06:52
2015-Mar-05 06:37
2015-Mar-05 06:21
2015-Mar-05 06:06
2015-Mar-05 05:51
2015-Mar-05 05:36
2015-Mar-05 05:21
2015-Mar-05 05:06
2015-Mar-05 04:51
2015-Mar-05 04:36
2015-Mar-05 04:21
2015-Mar-05 04:06
2015-Mar-05 03:51
2015-Mar-05 03:36
2015-Mar-05 03:21
2015-Mar-05 03:06
2015-Mar-05 02:50
2015-Mar-05 02:35
2015-Mar-05 02:20
2015-Mar-05 02:05
2015-Mar-05 01:50
2015-Mar-05 01:35
2015-Mar-05 01:20 016 3 gusting 13 5.0
2015-Mar-05 01:05 032 9 gusting 20 5.0
2015-Mar-05 00:50 038 13 gusting 18 5.6
2015-Mar-05 00:35 051 11 gusting 16 6.1
2015-Mar-05 00:20 019 5 gusting 13 6.7
2015-Mar-05 00:05 034 6 gusting 10 6.7
2015-Mar-04 23:50 046 6 gusting 13 7.2
2015-Mar-04 23:35 027 6 gusting 8 7.2
2015-Mar-04 23:20 049 5 gusting 8 6.7
2015-Mar-04 23:05 204 7.2
2015-Mar-04 22:50 107 1 gusting 2 7.2
2015-Mar-04 22:35 214 7.2
2015-Mar-04 22:20 249 0 gusting 3 7.2
2015-Mar-04 22:04 346 0 gusting 1 7.2
2015-Mar-04 21:49 355 7.2
2015-Mar-04 21:34 354 1 gusting 4 7.2
2015-Mar-04 21:19 291 4 gusting 7 7.2
2015-Mar-04 21:04 271 5 gusting 10 7.2
2015-Mar-04 20:49 245 5 gusting 11 7.8
2015-Mar-04 20:34 120 1 gusting 4 8.9
2015-Mar-04 20:19 126 1 gusting 4 8.9
2015-Mar-04 20:04 091 1 gusting 3 8.9
2015-Mar-04 19:49 051 0 gusting 3 8.9
2015-Mar-04 19:34 067 8.9
2015-Mar-04 19:19 051 0 gusting 1 8.9
2015-Mar-04 19:04 295 8.9
2015-Mar-04 18:49 336 8.9
2015-Mar-04 18:34 259 1 gusting 2 8.9
2015-Mar-04 18:19 203 8.9
2015-Mar-04 18:04 203 8.9
2015-Mar-04 17:49 204 8.9
2015-Mar-04 17:34 204 9.4
2015-Mar-04 17:19 138 9.4
2015-Mar-04 17:04 067 9.4
2015-Mar-04 16:49 260 10.0
2015-Mar-04 16:34 041 10.0
2015-Mar-04 16:19 065 0 gusting 2 10.0
2015-Mar-04 16:04 114 10.6
2015-Mar-04 15:49 082 10.6
2015-Mar-04 15:34 117 10.6
2015-Mar-04 15:19 091 10.6
2015-Mar-04 15:04 087 11.1
2015-Mar-04 14:49 143 11.1
2015-Mar-04 14:34 214 11.1
2015-Mar-04 14:19 205 2 gusting 4 11.7
2015-Mar-04 14:03 210 0 gusting 3 11.7
2015-Mar-04 13:48 214 1 gusting 5 12.2
2015-Mar-04 13:33 229 1 gusting 6 12.2
2015-Mar-04 13:18 172 4 gusting 7 12.2
2015-Mar-04 13:03 194 1 gusting 5 12.2
2015-Mar-04 12:48 215 1 gusting 6 12.2
2015-Mar-04 12:33 211 1 gusting 5 12.2
2015-Mar-04 12:18 232 2 gusting 4 11.7
2015-Mar-04 12:03 134 0 gusting 3 11.7
2015-Mar-04 11:48 132 1 gusting 3 11.7
2015-Mar-04 11:33 158 1 gusting 6 11.7
2015-Mar-04 11:18 137 1 gusting 6 11.7
2015-Mar-04 11:03 155 2 gusting 5 11.1
2015-Mar-04 10:48 084 10.6
2015-Mar-04 10:33 074 0 gusting 2 10.0
2015-Mar-04 10:18 084 1 gusting 3 10.0
2015-Mar-04 10:03 025 0 gusting 0 9.4
2015-Mar-04 09:48 080 8.9
2015-Mar-04 09:33 228 7.8
2015-Mar-04 09:17 225 6.7
2015-Mar-04 09:02 233 6.1
2015-Mar-04 08:47 248 6.1
2015-Mar-04 08:32 284 5.6
2015-Mar-04 08:17 093 5.0
2015-Mar-04 08:02 090 4.4
2015-Mar-04 07:47 043 3.9
2015-Mar-04 07:32 074 2.8
2015-Mar-04 07:17
2015-Mar-04 07:02
2015-Mar-04 06:47
2015-Mar-04 06:32
2015-Mar-04 06:17
2015-Mar-04 06:02
2015-Mar-04 05:47
2015-Mar-04 05:32
2015-Mar-04 05:17
2015-Mar-04 05:02
2015-Mar-04 04:47
2015-Mar-04 04:31
2015-Mar-04 04:16
2015-Mar-04 04:01
2015-Mar-04 03:46
2015-Mar-04 03:31
2015-Mar-04 03:16
2015-Mar-04 03:01
2015-Mar-04 02:46 248 1.7
2015-Mar-04 02:31 200 1.7
2015-Mar-04 02:16 165 1.7
2015-Mar-04 02:01 165 1.1
2015-Mar-04 01:46 221 1.7
2015-Mar-04 01:31 280 1.7
2015-Mar-04 01:16 280 1.7
2015-Mar-04 01:01 298 0 gusting 1 1.7
2015-Mar-04 00:46 211 2.2
2015-Mar-04 00:31 281 0 gusting 1 2.8
2015-Mar-04 00:16 266 0 gusting 0 2.2
2015-Mar-04 00:01 225 2.8
2015-Mar-03 23:45 225 2.8
2015-Mar-03 23:30 289 3.3
2015-Mar-03 23:15 294 0 gusting 0 3.3
2015-Mar-03 23:00 264 3.3
2015-Mar-03 22:45 270 3.3
2015-Mar-03 22:30 278 3.9
2015-Mar-03 22:00 063 4.4
2015-Mar-03 21:45 069 5.0
2015-Mar-03 21:30 282 0 gusting 2 5.6
2015-Mar-03 21:15 078 6.1
2015-Mar-03 21:00 131 6.1
2015-Mar-03 20:45 307 6.1
2015-Mar-03 20:30 360 6.7
2015-Mar-03 20:15 281 7.2
2015-Mar-03 20:00 152 7.8
2015-Mar-03 19:45 287 8.9
2015-Mar-03 19:30 287 1 gusting 2 8.9
2015-Mar-03 19:15 293 0 gusting 2 9.4
2015-Mar-03 19:00 270 0 gusting 1 10.0
2015-Mar-03 18:45 273 10.0
2015-Mar-03 18:30 204 10.6
2015-Mar-03 18:15 173 11.1
2015-Mar-03 18:00 173 11.1
2015-Mar-03 17:45 137 2 gusting 4 11.1
2015-Mar-03 17:30 148 0 gusting 1 11.7
2015-Mar-03 17:15 151 1 gusting 2 11.7
2015-Mar-03 17:00 100 12.2
2015-Mar-03 16:45 113 2 gusting 4 12.8
2015-Mar-03 16:30 120 4 gusting 6 12.8
2015-Mar-03 16:15 080 5 gusting 6 13.9
2015-Mar-03 16:00 117 3 gusting 6 15.0
2015-Mar-03 15:45 135 4 gusting 6 16.1
2015-Mar-03 15:30 212 4 gusting 8 17.2
2015-Mar-03 15:15 159 1 gusting 6 17.2
2015-Mar-03 14:59 212 1 gusting 3 17.2
2015-Mar-03 14:44 219 0 gusting 3 16.7
2015-Mar-03 14:29 315 2 gusting 5 16.1
2015-Mar-03 14:14 308 0 gusting 3 16.1
2015-Mar-03 13:59 204 16.1
2015-Mar-03 13:44 095 0 gusting 4 16.1
2015-Mar-03 13:29 074 2 gusting 4 15.6
2015-Mar-03 13:14 061 2 gusting 4 16.1
2015-Mar-03 12:59 285 1 gusting 3 15.6
2015-Mar-03 12:44 011 1 gusting 2 15.6
2015-Mar-03 12:29 267 14.4
2015-Mar-03 12:14 012 1 gusting 2 15.0
2015-Mar-03 11:59 276 1 gusting 3 15.0
2015-Mar-03 11:44 333 0 gusting 3 14.4
2015-Mar-03 11:29 315 0 gusting 2 13.9
2015-Mar-03 11:14 328 0 gusting 3 13.9
2015-Mar-03 10:59 075 1 gusting 3 14.4
2015-Mar-03 10:44 086 0 gusting 2 14.4
2015-Mar-03 10:29 336 0 gusting 3 13.9
2015-Mar-03 10:14 105 1 gusting 3 13.9
2015-Mar-03 09:59 063 13.3
2015-Mar-03 09:44 262 0 gusting 2 13.3
2015-Mar-03 09:29 294 0 gusting 3 12.8
2015-Mar-03 09:14 046 0 gusting 3 12.2
2015-Mar-03 08:59 091 1 gusting 3 12.2
2015-Mar-03 08:43 070 1 gusting 4 11.7
2015-Mar-03 08:28 084 0 gusting 2 11.7
2015-Mar-03 08:13 108 0 gusting 1 11.7